Wetterdaten: Woche 02.06.08 - 08.06.08 (KW23)
Datum Zeit Temperatur Luftfeuchte Luftdruck Niederschlag Wind Richtung Sonnenschein Solar Taupunkt Windchill Windben
02.06.2008 00:00 19.3 C 79 % 1010.4 hPa 0.0 l/m 0.2 km/h (0 Bft) SO 0.00 h 0 W/m 15.5 C 19.3 C 1.1 km/h (1 Bft)
02.06.2008 01:00 19.0 C 79 % 1009.8 hPa 0.0 l/m 1.1 km/h (1 Bft) O 0.00 h 0 W/m 15.3 C 19.0 C 2.7 km/h (1 Bft)
02.06.2008 02:00 17.8 C 83 % 1009.3 hPa 0.0 l/m 0.6 km/h (0 Bft) O-SO 0.00 h 0 W/m 14.8 C 17.8 C 1.6 km/h (1 Bft)
02.06.2008 03:00 16.9 C 87 % 1009.1 hPa 0.0 l/m 0.6 km/h (0 Bft) O-SO 0.00 h 0 W/m 14.7 C 16.9 C 1.6 km/h (1 Bft)
02.06.2008 04:00 16.4 C 87 % 1008.9 hPa 0.0 l/m 1.9 km/h (1 Bft) O-SO 0.00 h 0 W/m 14.3 C 16.4 C 3.3 km/h (1 Bft)
02.06.2008 05:00 15.5 C 89 % 1009.3 hPa 0.0 l/m 0.8 km/h (0 Bft) O-SO 0.00 h 7 W/m 13.8 C 15.5 C 1.4 km/h (1 Bft)
02.06.2008 06:00 15.4 C 91 % 1009.4 hPa 0.0 l/m 0.5 km/h (0 Bft) O 0.05 h 43 W/m 13.9 C 15.4 C 1.2 km/h (1 Bft)
02.06.2008 07:00 17.1 C 87 % 1009.3 hPa 0.0 l/m 0.5 km/h (0 Bft) O 1.00 h 191 W/m 14.9 C 17.1 C 1.3 km/h (1 Bft)
02.06.2008 08:00 19.3 C 81 % 1009.4 hPa 0.0 l/m 2.7 km/h (1 Bft) N-NW 1.00 h 358 W/m 15.9 C 19.3 C 4.9 km/h (1 Bft)
02.06.2008 09:00 21.4 C 73 % 1009.5 hPa 0.0 l/m 4.5 km/h (1 Bft) N-NW 1.00 h 519 W/m 16.3 C 21.4 C 7.3 km/h (2 Bft)
02.06.2008 10:00 22.4 C 70 % 1009.6 hPa 0.0 l/m 9.1 km/h (2 Bft) W 1.00 h 656 W/m 16.5 C 22.4 C 15.5 km/h (3 Bft)
02.06.2008 11:00 22.8 C 68 % 1010.1 hPa 0.0 l/m 13.3 km/h (3 Bft) W 1.00 h 719 W/m 16.5 C 22.8 C 21.5 km/h (4 Bft)
02.06.2008 12:00 23.0 C 67 % 1010.2 hPa 0.0 l/m 16.9 km/h (3 Bft) W 0.80 h 786 W/m 16.7 C 23.0 C 27.0 km/h (4 Bft)
02.06.2008 13:00 23.8 C 59 % 1009.9 hPa 0.0 l/m 17.1 km/h (3 Bft) W 1.00 h 845 W/m 15.2 C 23.8 C 26.2 km/h (4 Bft)
02.06.2008 14:00 24.1 C 58 % 1009.8 hPa 0.0 l/m 16.4 km/h (3 Bft) W 1.00 h 809 W/m 15.3 C 24.1 C 26.2 km/h (4 Bft)
02.06.2008 15:00 23.8 C 58 % 1009.3 hPa 0.0 l/m 16.8 km/h (3 Bft) W 0.82 h 595 W/m 15.0 C 23.8 C 25.7 km/h (4 Bft)
02.06.2008 16:00 22.3 C 61 % 1009.4 hPa 0.0 l/m 16.5 km/h (3 Bft) W 0.58 h 419 W/m 14.3 C 22.3 C 26.6 km/h (4 Bft)
02.06.2008 17:00 22.3 C 54 % 1010.0 hPa 0.0 l/m 20.5 km/h (4 Bft) W 0.75 h 487 W/m 12.7 C 22.3 C 31.9 km/h (5 Bft)
02.06.2008 18:00 19.9 C 59 % 1011.6 hPa 0.0 l/m 19.8 km/h (3 Bft) W 0.40 h 247 W/m 11.7 C 19.9 C 31.2 km/h (5 Bft)
02.06.2008 19:00 18.1 C 61 % 1012.2 hPa 0.0 l/m 8.9 km/h (2 Bft) W 0.00 h 65 W/m 10.3 C 18.1 C 15.0 km/h (3 Bft)
02.06.2008 20:00 17.0 C 67 % 1012.8 hPa 0.0 l/m 2.3 km/h (1 Bft) W-SW 0.00 h 29 W/m 10.8 C 17.0 C 4.8 km/h (1 Bft)
02.06.2008 21:00 16.3 C 77 % 1013.1 hPa 0.0 l/m 1.9 km/h (1 Bft) W-SW 0.00 h 5 W/m 12.2 C 16.3 C 4.8 km/h (1 Bft)
02.06.2008 22:00 15.4 C 84 % 1013.3 hPa 0.0 l/m 2.2 km/h (1 Bft) S-SO 0.00 h 0 W/m 12.6 C 15.4 C 5.6 km/h (1 Bft)
02.06.2008 23:00 14.9 C 85 % 1013.3 hPa 0.0 l/m 2.7 km/h (1 Bft) S-SO 0.00 h 0 W/m 12.4 C 14.9 C 5.7 km/h (1 Bft)
03.06.2008 00:00 14.6 C 86 % 1013.0 hPa 0.0 l/m 0.9 km/h (0 Bft) S-SO 0.00 h 0 W/m 12.3 C 14.6 C 2.2 km/h (1 Bft)
03.06.2008 01:00 14.1 C 88 % 1013.3 hPa 0.0 l/m 1.0 km/h (0 Bft) SO 0.00 h 0 W/m 12.2 C 14.1 C 2.4 km/h (1 Bft)
03.06.2008 02:00 14.0 C 89 % 1012.9 hPa 0.0 l/m 2.2 km/h (1 Bft) SO 0.00 h 0 W/m 12.2 C 14.0 C 4.1 km/h (1 Bft)
03.06.2008 03:00 13.6 C 90 % 1012.9 hPa 0.0 l/m 0.7 km/h (0 Bft) S-SO 0.00 h 0 W/m 12.0 C 13.6 C 2.2 km/h (1 Bft)
03.06.2008 04:00 13.4 C 91 % 1012.6 hPa 0.0 l/m 0.1 km/h (0 Bft) S-SO 0.00 h 0 W/m 12.0 C 13.4 C 0.5 km/h (0 Bft)
03.06.2008 05:00 13.4 C 91 % 1012.8 hPa 0.0 l/m 0.5 km/h (0 Bft) S-SO 0.00 h 11 W/m 12.1 C 13.4 C 1.2 km/h (1 Bft)
03.06.2008 06:00 13.5 C 92 % 1013.3 hPa 0.0 l/m 0.6 km/h (0 Bft) SO 0.00 h 42 W/m 12.3 C 13.5 C 1.4 km/h (1 Bft)
03.06.2008 07:00 14.5 C 90 % 1013.8 hPa 0.0 l/m 0.5 km/h (0 Bft) SO 0.27 h 145 W/m 12.9 C 14.5 C 1.4 km/h (1 Bft)
03.06.2008 08:00 17.2 C 79 % 1014.0 hPa 0.0 l/m 2.6 km/h (1 Bft) S-SO 0.80 h 335 W/m 13.6 C 17.2 C 5.3 km/h (1 Bft)
03.06.2008 09:00 18.5 C 71 % 1014.3 hPa 0.0 l/m 6.4 km/h (2 Bft) W 0.93 h 518 W/m 13.1 C 18.5 C 10.8 km/h (2 Bft)
03.06.2008 10:00 19.5 C 67 % 1014.2 hPa 0.0 l/m 6.9 km/h (2 Bft) W 1.00 h 666 W/m 13.1 C 19.5 C 11.6 km/h (2 Bft)
03.06.2008 11:00 20.3 C 64 % 1014.2 hPa 0.0 l/m 5.4 km/h (1 Bft) W 0.67 h 622 W/m 13.1 C 20.3 C 9.5 km/h (2 Bft)
03.06.2008 12:00 21.4 C 58 % 1013.8 hPa 0.0 l/m 6.1 km/h (2 Bft) W-SW 0.87 h 640 W/m 12.8 C 21.4 C 10.4 km/h (2 Bft)
03.06.2008 13:00 21.6 C 58 % 1013.5 hPa 0.0 l/m 5.9 km/h (2 Bft) W 0.62 h 619 W/m 12.9 C 21.6 C 9.5 km/h (2 Bft)
03.06.2008 14:00 23.0 C 51 % 1013.1 hPa 0.0 l/m 5.0 km/h (1 Bft) W 1.00 h 674 W/m 12.4 C 23.0 C 8.4 km/h (2 Bft)
03.06.2008 15:00 24.1 C 45 % 1012.7 hPa 0.0 l/m 4.2 km/h (1 Bft) W-SW 0.90 h 765 W/m 11.3 C 24.1 C 7.3 km/h (2 Bft)
03.06.2008 16:00 24.7 C 44 % 1012.2 hPa 0.0 l/m 5.7 km/h (1 Bft) W 1.00 h 695 W/m 11.6 C 24.7 C 9.1 km/h (2 Bft)
03.06.2008 17:00 23.3 C 50 % 1011.9 hPa 0.0 l/m 6.8 km/h (2 Bft) N-NW 0.30 h 282 W/m 12.1 C 23.3 C 11.4 km/h (2 Bft)
03.06.2008 18:00 21.2 C 56 % 1012.1 hPa 0.0 l/m 5.8 km/h (2 Bft) N-NW 0.00 h 146 W/m 12.1 C 21.2 C 9.5 km/h (2 Bft)
03.06.2008 19:00 21.5 C 56 % 1012.2 hPa 0.0 l/m 4.0 km/h (1 Bft) W-NW 0.60 h 175 W/m 12.4 C 21.5 C 6.6 km/h (2 Bft)
03.06.2008 20:00 20.6 C 59 % 1012.3 hPa 0.0 l/m 5.9 km/h (2 Bft) W-NW 0.00 h 45 W/m 12.3 C 20.6 C 8.7 km/h (2 Bft)
03.06.2008 21:00 19.4 C 65 % 1012.7 hPa 0.0 l/m 7.3 km/h (2 Bft) W-NW 0.05 h 9 W/m 12.6 C 19.4 C 11.6 km/h (2 Bft)
03.06.2008 22:00 18.6 C 68 % 1013.4 hPa 0.0 l/m 3.8 km/h (1 Bft) W-NW 0.00 h 0 W/m 12.7 C 18.6 C 7.0 km/h (2 Bft)
03.06.2008 23:00 16.3 C 87 % 1014.5 hPa 22.8 l/m 3.5 km/h (1 Bft) SO 0.00 h 0 W/m 14.1 C 16.3 C 6.2 km/h (2 Bft)
04.06.2008 00:00 14.8 C 96 % 1014.8 hPa 8.6 l/m 3.2 km/h (1 Bft) S-SO 0.00 h 0 W/m 14.2 C 14.8 C 5.3 km/h (1 Bft)
04.06.2008 01:00 14.7 C 98 % 1015.0 hPa 1.6 l/m 0.3 km/h (0 Bft) SO 0.00 h 0 W/m 14.4 C 14.7 C 1.3 km/h (1 Bft)
04.06.2008 02:00 14.5 C 100 % 1014.9 hPa 1.4 l/m 2.4 km/h (1 Bft) N-NW 0.00 h 0 W/m 14.5 C 14.5 C 4.6 km/h (1 Bft)
04.06.2008 03:00 13.8 C 100 % 1014.5 hPa 0.2 l/m 1.4 km/h (1 Bft) W-NW 0.00 h 0 W/m 13.7 C 13.8 C 3.3 km/h (1 Bft)
04.06.2008 04:00 13.7 C 99 % 1013.9 hPa 0.0 l/m 2.9 km/h (1 Bft) W-NW 0.00 h 0 W/m 13.6 C 13.7 C 5.7 km/h (1 Bft)
04.06.2008 05:00 13.5 C 99 % 1014.2 hPa 0.0 l/m 4.5 km/h (1 Bft) W-NW 0.00 h 7 W/m 13.4 C 13.5 C 8.0 km/h (2 Bft)
04.06.2008 06:00 13.6 C 97 % 1014.6 hPa 0.0 l/m 3.0 km/h (1 Bft) NW 0.00 h 17 W/m 13.2 C 13.6 C 5.7 km/h (1 Bft)
04.06.2008 07:00 13.5 C 97 % 1014.7 hPa 0.0 l/m 4.7 km/h (1 Bft) W 0.00 h 52 W/m 13.1 C 13.5 C 7.7 km/h (2 Bft)
04.06.2008 08:00 13.6 C 96 % 1014.8 hPa 0.0 l/m 6.6 km/h (2 Bft) W 0.00 h 67 W/m 13.1 C 13.6 C 10.5 km/h (2 Bft)
04.06.2008 09:00 13.7 C 94 % 1014.9 hPa 0.0 l/m 5.9 km/h (2 Bft) W 0.00 h 53 W/m 12.8 C 13.7 C 10.9 km/h (2 Bft)
04.06.2008 10:00 13.7 C 94 % 1015.1 hPa 0.2 l/m 2.8 km/h (1 Bft) W 0.00 h 50 W/m 12.7 C 13.7 C 6.0 km/h (2 Bft)
04.06.2008 11:00 13.4 C 96 % 1015.5 hPa 2.0 l/m 2.2 km/h (1 Bft) W 0.00 h 63 W/m 12.9 C 13.4 C 4.7 km/h (1 Bft)
04.06.2008 12:00 13.2 C 98 % 1015.7 hPa 0.8 l/m 1.9 km/h (1 Bft) W-SW 0.00 h 93 W/m 12.8 C 13.2 C 4.5 km/h (1 Bft)
04.06.2008 13:00 13.4 C 97 % 1015.5 hPa 0.0 l/m 4.9 km/h (1 Bft) W 0.00 h 158 W/m 13.1 C 13.4 C 9.1 km/h (2 Bft)
04.06.2008 14:00 13.6 C 96 % 1015.2 hPa 0.0 l/m 5.2 km/h (1 Bft) W 0.00 h 154 W/m 13.0 C 13.6 C 9.9 km/h (2 Bft)
04.06.2008 15:00 14.0 C 95 % 1015.1 hPa 0.0 l/m 5.1 km/h (1 Bft) W 0.00 h 247 W/m 13.2 C 14.0 C 9.0 km/h (2 Bft)
04.06.2008 16:00 14.8 C 91 % 1014.7 hPa 0.0 l/m 7.2 km/h (2 Bft) W 0.18 h 289 W/m 13.3 C 14.8 C 12.5 km/h (3 Bft)
04.06.2008 17:00 14.1 C 91 % 1014.5 hPa 0.0 l/m 8.0 km/h (2 Bft) W 0.00 h 83 W/m 12.6 C 14.1 C 14.5 km/h (3 Bft)
04.06.2008 18:00 13.7 C 92 % 1014.6 hPa 0.4 l/m 4.6 km/h (1 Bft) W 0.00 h 25 W/m 12.4 C 13.7 C 8.6 km/h (2 Bft)
04.06.2008 19:00 13.3 C 96 % 1014.5 hPa 0.0 l/m 3.5 km/h (1 Bft) W 0.00 h 20 W/m 12.6 C 13.3 C 7.0 km/h (2 Bft)
04.06.2008 20:00 13.3 C 95 % 1014.5 hPa 0.4 l/m 2.0 km/h (1 Bft) SW 0.00 h 12 W/m 12.6 C 13.3 C 3.9 km/h (1 Bft)
04.06.2008 21:00 13.4 C 96 % 1014.6 hPa 0.0 l/m 1.3 km/h (1 Bft) SW 0.00 h 0 W/m 12.7 C 13.4 C 3.3 km/h (1 Bft)
04.06.2008 22:00 13.7 C 93 % 1014.7 hPa 0.0 l/m 0.3 km/h (0 Bft) S-SO 0.00 h 0 W/m 12.5 C 13.7 C 1.3 km/h (1 Bft)
04.06.2008 23:00 13.8 C 92 % 1014.7 hPa 0.0 l/m 0.9 km/h (0 Bft) SO 0.00 h 0 W/m 12.5 C 13.8 C 2.9 km/h (1 Bft)
05.06.2008 00:00 13.7 C 93 % 1014.5 hPa 0.0 l/m 1.3 km/h (1 Bft) S-SO 0.00 h 0 W/m 12.5 C 13.7 C 3.7 km/h (1 Bft)
05.06.2008 01:00 13.7 C 93 % 1014.1 hPa 0.0 l/m 0.8 km/h (0 Bft) S-SO 0.00 h 0 W/m 12.6 C 13.7 C 2.6 km/h (1 Bft)
05.06.2008 02:00 13.6 C 95 % 1013.5 hPa 0.0 l/m 0.9 km/h (0 Bft) S-SO 0.00 h 0 W/m 12.7 C 13.6 C 2.4 km/h (1 Bft)
05.06.2008 03:00 13.5 C 94 % 1012.9 hPa 0.0 l/m 1.1 km/h (1 Bft) SO 0.00 h 0 W/m 12.6 C 13.5 C 3.0 km/h (1 Bft)
05.06.2008 04:00 13.6 C 93 % 1012.5 hPa 0.0 l/m 0.7 km/h (0 Bft) W-SW 0.00 h 0 W/m 12.6 C 13.6 C 2.5 km/h (1 Bft)
05.06.2008 05:00 13.6 C 93 % 1012.2 hPa 0.4 l/m 1.2 km/h (1 Bft) SW 0.00 h 0 W/m 12.6 C 13.6 C 2.9 km/h (1 Bft)
05.06.2008 06:00 13.3 C 96 % 1012.0 hPa 0.2 l/m 1.8 km/h (1 Bft) W 0.00 h 9 W/m 12.7 C 13.3 C 4.4 km/h (1 Bft)
05.06.2008 07:00 13.2 C 97 % 1011.8 hPa 0.2 l/m 2.8 km/h (1 Bft) W 0.00 h 28 W/m 12.7 C 13.2 C 6.3 km/h (2 Bft)
05.06.2008 08:00 13.3 C 97 % 1011.5 hPa 0.0 l/m 2.4 km/h (1 Bft) W-SW 0.00 h 61 W/m 12.9 C 13.3 C 5.2 km/h (1 Bft)
05.06.2008 09:00 13.5 C 97 % 1011.6 hPa 0.0 l/m 1.6 km/h (1 Bft) W-SW 0.00 h 75 W/m 13.0 C 13.5 C 4.3 km/h (1 Bft)
05.06.2008 10:00 13.8 C 95 % 1011.4 hPa 0.0 l/m 1.2 km/h (1 Bft) SW 0.00 h 83 W/m 13.0 C 13.8 C 2.9 km/h (1 Bft)
05.06.2008 11:00 14.0 C 93 % 1011.4 hPa 0.0 l/m 1.1 km/h (1 Bft) W 0.00 h 102 W/m 13.0 C 14.0 C 3.1 km/h (1 Bft)
05.06.2008 12:00 14.3 C 92 % 1011.2 hPa 0.0 l/m 3.4 km/h (1 Bft) W-NW 0.00 h 150 W/m 13.0 C 14.3 C 6.2 km/h (2 Bft)
05.06.2008 13:00 14.8 C 92 % 1010.9 hPa 0.2 l/m 3.9 km/h (1 Bft) W-NW 0.00 h 228 W/m 13.5 C 14.8 C 6.6 km/h (2 Bft)
05.06.2008 14:00 16.1 C 87 % 1010.6 hPa 0.0 l/m 4.8 km/h (1 Bft) W 0.08 h 402 W/m 14.0 C 16.1 C 8.1 km/h (2 Bft)
05.06.2008 15:00 16.7 C 84 % 1010.2 hPa 0.0 l/m 4.9 km/h (1 Bft) W-NW 0.00 h 302 W/m 14.0 C 16.7 C 8.4 km/h (2 Bft)
05.06.2008 16:00 16.6 C 84 % 1010.0 hPa 0.0 l/m 6.1 km/h (2 Bft) W 0.00 h 287 W/m 13.9 C 16.6 C 9.7 km/h (2 Bft)
05.06.2008 17:00 16.7 C 84 % 1009.8 hPa 0.0 l/m 5.8 km/h (1 Bft) W 0.00 h 207 W/m 14.0 C 16.7 C 9.2 km/h (2 Bft)
05.06.2008 18:00 16.2 C 86 % 1010.0 hPa 0.0 l/m 3.2 km/h (1 Bft) W-NW 0.00 h 122 W/m 13.9 C 16.2 C 6.0 km/h (2 Bft)
05.06.2008 19:00 16.2 C 85 % 1010.3 hPa 0.0 l/m 3.7 km/h (1 Bft) W-NW 0.00 h 72 W/m 13.7 C 16.2 C 5.9 km/h (2 Bft)
05.06.2008 20:00 15.7 C 87 % 1010.4 hPa 0.0 l/m 1.0 km/h (0 Bft) W-NW 0.00 h 22 W/m 13.7 C 15.7 C 2.4 km/h (1 Bft)
05.06.2008 21:00 15.4 C 89 % 1010.7 hPa 0.0 l/m 1.6 km/h (1 Bft) W-NW 0.00 h 0 W/m 13.6 C 15.4 C 3.5 km/h (1 Bft)
05.06.2008 22:00 15.3 C 90 % 1010.8 hPa 0.0 l/m 0.7 km/h (0 Bft) W-NW 0.00 h 0 W/m 13.7 C 15.3 C 1.8 km/h (1 Bft)
05.06.2008 23:00 15.2 C 91 % 1010.7 hPa 0.0 l/m 0.7 km/h (0 Bft) W 0.00 h 0 W/m 13.8 C 15.2 C 1.1 km/h (1 Bft)
06.06.2008 00:00 14.7 C 94 % 1010.7 hPa 0.0 l/m 0.7 km/h (0 Bft) O-SO 0.00 h 0 W/m 13.7 C 14.7 C 1.7 km/h (1 Bft)
06.06.2008 01:00 14.5 C 95 % 1010.7 hPa 0.0 l/m 0.1 km/h (0 Bft) O-SO 0.00 h 0 W/m 13.7 C 14.5 C 1.0 km/h (0 Bft)
06.06.2008 02:00 14.6 C 96 % 1010.5 hPa 0.4 l/m 0.0 km/h (0 Bft) N 0.00 h 0 W/m 13.9 C 14.6 C 0.0 km/h (0 Bft)
06.06.2008 03:00 14.5 C 98 % 1010.2 hPa 0.2 l/m 0.0 km/h (0 Bft) N 0.00 h 0 W/m 14.1 C 14.5 C 0.1 km/h (0 Bft)
06.06.2008 04:00 14.5 C 99 % 1010.0 hPa 0.0 l/m 0.7 km/h (0 Bft) W-SW 0.00 h 0 W/m 14.3 C 14.5 C 1.9 km/h (1 Bft)
06.06.2008 05:00 14.1 C 99 % 1010.1 hPa 0.0 l/m 1.3 km/h (1 Bft) W 0.00 h 0 W/m 13.9 C 14.1 C 3.6 km/h (1 Bft)
06.06.2008 06:00 13.8 C 97 % 1010.2 hPa 0.0 l/m 1.0 km/h (0 Bft) NW 0.00 h 10 W/m 13.4 C 13.8 C 2.8 km/h (1 Bft)
06.06.2008 07:00 13.5 C 96 % 1010.5 hPa 0.0 l/m 2.0 km/h (1 Bft) W-NW 0.00 h 26 W/m 12.8 C 13.5 C 4.4 km/h (1 Bft)
06.06.2008 08:00 13.4 C 93 % 1010.8 hPa 0.0 l/m 2.4 km/h (1 Bft) W 0.00 h 55 W/m 12.3 C 13.4 C 5.1 km/h (1 Bft)
06.06.2008 09:00 13.3 C 90 % 1010.9 hPa 0.0 l/m 6.1 km/h (2 Bft) W 0.00 h 72 W/m 11.7 C 13.3 C 11.3 km/h (2 Bft)
06.06.2008 10:00 13.3 C 88 % 1011.1 hPa 0.0 l/m 8.5 km/h (2 Bft) W 0.00 h 73 W/m 11.3 C 13.3 C 15.5 km/h (3 Bft)
06.06.2008 11:00 13.6 C 87 % 1011.4 hPa 0.0 l/m 4.1 km/h (1 Bft) W 0.00 h 100 W/m 11.4 C 13.6 C 7.8 km/h (2 Bft)
06.06.2008 12:00 14.0 C 86 % 1011.7 hPa 0.0 l/m 6.2 km/h (2 Bft) W 0.00 h 154 W/m 11.7 C 14.0 C 11.6 km/h (2 Bft)
06.06.2008 13:00 14.0 C 87 % 1011.9 hPa 0.0 l/m 7.8 km/h (2 Bft) W 0.00 h 157 W/m 11.8 C 14.0 C 14.3 km/h (3 Bft)
06.06.2008 14:00 14.7 C 84 % 1011.9 hPa 0.0 l/m 9.4 km/h (2 Bft) W 0.00 h 219 W/m 12.0 C 14.7 C 15.3 km/h (3 Bft)
06.06.2008 15:00 14.8 C 83 % 1011.9 hPa 0.0 l/m 10.9 km/h (2 Bft) W 0.00 h 280 W/m 11.9 C 14.8 C 18.6 km/h (3 Bft)
06.06.2008 16:00 15.1 C 81 % 1012.1 hPa 0.0 l/m 13.1 km/h (3 Bft) W 0.20 h 341 W/m 11.7 C 15.1 C 21.5 km/h (4 Bft)
06.06.2008 17:00 14.8 C 81 % 1012.3 hPa 0.0 l/m 13.8 km/h (3 Bft) W 0.45 h 311 W/m 11.6 C 14.8 C 21.7 km/h (4 Bft)
06.06.2008 18:00 14.0 C 81 % 1012.8 hPa 0.0 l/m 15.0 km/h (3 Bft) W 0.00 h 125 W/m 10.7 C 14.0 C 24.7 km/h (4 Bft)
06.06.2008 19:00 13.6 C 80 % 1013.2 hPa 0.0 l/m 9.5 km/h (2 Bft) W-NW 0.00 h 57 W/m 10.2 C 13.6 C 15.2 km/h (3 Bft)
06.06.2008 20:00 13.2 C 82 % 1013.6 hPa 0.0 l/m 4.1 km/h (1 Bft) W 0.00 h 20 W/m 10.2 C 13.2 C 7.5 km/h (2 Bft)
06.06.2008 21:00 12.7 C 86 % 1014.3 hPa 0.2 l/m 4.5 km/h (1 Bft) W-NW 0.00 h 0 W/m 10.5 C 12.7 C 8.6 km/h (2 Bft)
06.06.2008 22:00 12.2 C 91 % 1014.9 hPa 0.6 l/m 1.4 km/h (1 Bft) W-SW 0.00 h 0 W/m 10.8 C 12.2 C 3.2 km/h (1 Bft)
06.06.2008 23:00 11.9 C 93 % 1015.1 hPa 0.8 l/m 3.4 km/h (1 Bft) W-NW 0.00 h 0 W/m 10.8 C 11.9 C 6.1 km/h (2 Bft)
07.06.2008 00:00 11.6 C 94 % 1015.0 hPa 0.2 l/m 5.2 km/h (1 Bft) W 0.00 h 0 W/m 10.8 C 11.6 C 8.8 km/h (2 Bft)
07.06.2008 01:00 11.6 C 96 % 1014.9 hPa 0.2 l/m 0.8 km/h (0 Bft) SW 0.00 h 0 W/m 10.9 C 11.6 C 2.3 km/h (1 Bft)
07.06.2008 02:00 11.6 C 96 % 1014.8 hPa 0.6 l/m 0.3 km/h (0 Bft) SW 0.00 h 0 W/m 11.0 C 11.6 C 1.5 km/h (1 Bft)
07.06.2008 03:00 11.5 C 97 % 1014.7 hPa 0.2 l/m 0.3 km/h (0 Bft) SW 0.00 h 0 W/m 11.0 C 11.5 C 1.6 km/h (1 Bft)
07.06.2008 04:00 11.4 C 97 % 1014.4 hPa 0.0 l/m 0.1 km/h (0 Bft) W-SW 0.00 h 0 W/m 10.9 C 11.4 C 1.0 km/h (0 Bft)
07.06.2008 05:00 11.4 C 97 % 1014.5 hPa 0.0 l/m 0.2 km/h (0 Bft) S-SO 0.00 h 0 W/m 10.9 C 11.4 C 1.1 km/h (1 Bft)
07.06.2008 06:00 11.4 C 97 % 1014.8 hPa 0.4 l/m 0.0 km/h (0 Bft) S 0.00 h 10 W/m 10.9 C 11.4 C 0.9 km/h (0 Bft)
07.06.2008 07:00 11.6 C 98 % 1015.0 hPa 0.0 l/m 0.1 km/h (0 Bft) S 0.00 h 22 W/m 11.2 C 11.6 C 0.7 km/h (0 Bft)
07.06.2008 08:00 11.8 C 98 % 1015.4 hPa 0.4 l/m 0.1 km/h (0 Bft) S 0.00 h 36 W/m 11.5 C 11.8 C 1.2 km/h (1 Bft)
07.06.2008 09:00 12.0 C 98 % 1015.5 hPa 0.4 l/m 0.3 km/h (0 Bft) S-SW 0.00 h 62 W/m 11.7 C 12.0 C 1.8 km/h (1 Bft)
07.06.2008 10:00 12.3 C 99 % 1015.7 hPa 0.0 l/m 0.3 km/h (0 Bft) S-SW 0.00 h 95 W/m 12.1 C 12.3 C 1.9 km/h (1 Bft)
07.06.2008 11:00 12.3 C 100 % 1016.1 hPa 0.2 l/m 1.7 km/h (1 Bft) W 0.00 h 101 W/m 12.2 C 12.3 C 3.6 km/h (1 Bft)
07.06.2008 12:00 12.2 C 100 % 1016.3 hPa 0.0 l/m 4.5 km/h (1 Bft) W 0.00 h 138 W/m 12.1 C 12.2 C 7.5 km/h (2 Bft)
07.06.2008 13:00 12.1 C 99 % 1016.6 hPa 0.0 l/m 4.8 km/h (1 Bft) W 0.00 h 122 W/m 12.0 C 12.1 C 8.2 km/h (2 Bft)
07.06.2008 14:00 12.1 C 99 % 1016.2 hPa 0.0 l/m 4.5 km/h (1 Bft) W 0.00 h 118 W/m 11.9 C 12.1 C 8.2 km/h (2 Bft)
07.06.2008 15:00 12.3 C 97 % 1016.1 hPa 0.0 l/m 3.3 km/h (1 Bft) W 0.00 h 124 W/m 11.9 C 12.3 C 6.4 km/h (2 Bft)
07.06.2008 16:00 12.7 C 95 % 1015.9 hPa 0.2 l/m 4.0 km/h (1 Bft) W 0.00 h 173 W/m 11.9 C 12.7 C 7.3 km/h (2 Bft)
07.06.2008 17:00 12.5 C 94 % 1015.9 hPa 0.0 l/m 5.3 km/h (1 Bft) W 0.00 h 108 W/m 11.5 C 12.5 C 9.5 km/h (2 Bft)
07.06.2008 18:00 12.4 C 93 % 1016.0 hPa 0.0 l/m 3.8 km/h (1 Bft) W 0.00 h 47 W/m 11.3 C 12.4 C 7.5 km/h (2 Bft)
07.06.2008 19:00 12.3 C 92 % 1016.1 hPa 0.0 l/m 4.5 km/h (1 Bft) W-SW 0.00 h 29 W/m 11.1 C 12.3 C 8.3 km/h (2 Bft)
07.06.2008 20:00 12.3 C 92 % 1016.2 hPa 0.0 l/m 3.3 km/h (1 Bft) W 0.00 h 13 W/m 11.0 C 12.3 C 6.3 km/h (2 Bft)
07.06.2008 21:00 12.1 C 92 % 1016.6 hPa 0.0 l/m 3.3 km/h (1 Bft) W-NW 0.00 h 0 W/m 11.0 C 12.1 C 5.9 km/h (2 Bft)
07.06.2008 22:00 11.9 C 94 % 1016.8 hPa 0.0 l/m 0.5 km/h (0 Bft) O-SO 0.00 h 0 W/m 11.0 C 11.9 C 1.0 km/h (0 Bft)
07.06.2008 23:00 11.9 C 95 % 1016.9 hPa 0.2 l/m 0.1 km/h (0 Bft) O-SO 0.00 h 0 W/m 11.1 C 11.9 C 0.5 km/h (0 Bft)
08.06.2008 00:00 11.9 C 95 % 1016.8 hPa 0.0 l/m 0.9 km/h (0 Bft) W-SW 0.00 h 0 W/m 11.2 C 11.9 C 1.7 km/h (1 Bft)
08.06.2008 01:00 12.0 C 96 % 1016.6 hPa 0.0 l/m 0.0 km/h (0 Bft) N 0.00 h 0 W/m 11.4 C 12.0 C 0.4 km/h (0 Bft)
08.06.2008 02:00 12.1 C 96 % 1016.5 hPa 0.0 l/m 0.0 km/h (0 Bft) N 0.00 h 0 W/m 11.5 C 12.1 C 0.0 km/h (0 Bft)
08.06.2008 03:00 12.2 C 96 % 1016.2 hPa 0.0 l/m 0.0 km/h (0 Bft) N 0.00 h 0 W/m 11.6 C 12.2 C 0.1 km/h (0 Bft)
08.06.2008 04:00 12.2 C 97 % 1016.1 hPa 0.0 l/m 0.1 km/h (0 Bft) W-SW 0.00 h 0 W/m 11.7 C 12.2 C 0.5 km/h (0 Bft)
08.06.2008 05:00 12.1 C 97 % 1016.1 hPa 0.0 l/m 0.5 km/h (0 Bft) W-SW 0.00 h 7 W/m 11.7 C 12.1 C 1.2 km/h (1 Bft)
08.06.2008 06:00 12.2 C 97 % 1016.6 hPa 0.0 l/m 0.6 km/h (0 Bft) N 0.00 h 7 W/m 11.7 C 12.2 C 1.8 km/h (1 Bft)
08.06.2008 07:00 12.3 C 97 % 1016.9 hPa 0.0 l/m 0.3 km/h (0 Bft) N 0.00 h 39 W/m 11.8 C 12.3 C 0.7 km/h (0 Bft)
08.06.2008 08:00 13.1 C 95 % 1017.0 hPa 0.0 l/m 0.8 km/h (0 Bft) N 0.00 h 137 W/m 12.4 C 13.1 C 2.0 km/h (1 Bft)
08.06.2008 09:00 14.3 C 91 % 1016.9 hPa 0.0 l/m 1.6 km/h (1 Bft) NW 0.25 h 316 W/m 13.0 C 14.3 C 3.1 km/h (1 Bft)
08.06.2008 10:00 16.4 C 85 % 1016.7 hPa 0.0 l/m 1.6 km/h (1 Bft) N 0.55 h 429 W/m 13.8 C 16.4 C 3.3 km/h (1 Bft)
08.06.2008 11:00 17.5 C 80 % 1016.7 hPa 0.0 l/m 2.5 km/h (1 Bft) O-SO 0.40 h 519 W/m 14.1 C 17.5 C 5.0 km/h (1 Bft)
08.06.2008 12:00 19.2 C 73 % 1016.6 hPa 0.0 l/m 7.2 km/h (2 Bft) O-SO 0.75 h 747 W/m 14.1 C 19.2 C 12.3 km/h (3 Bft)
08.06.2008 13:00 20.1 C 69 % 1016.2 hPa 0.0 l/m 6.8 km/h (2 Bft) O-SO 0.48 h 607 W/m 14.2 C 20.1 C 10.9 km/h (2 Bft)
08.06.2008 14:00 21.0 C 66 % 1015.4 hPa 0.0 l/m 5.5 km/h (1 Bft) O-SO 0.87 h 682 W/m 14.4 C 21.0 C 9.2 km/h (2 Bft)
08.06.2008 15:00 21.9 C 65 % 1014.9 hPa 0.0 l/m 4.3 km/h (1 Bft) O-SO 0.45 h 505 W/m 15.0 C 21.9 C 7.3 km/h (2 Bft)
08.06.2008 16:00 20.4 C 65 % 1014.9 hPa 0.0 l/m 5.4 km/h (1 Bft) N-NO 0.08 h 195 W/m 13.5 C 20.4 C 10.2 km/h (2 Bft)
08.06.2008 17:00 19.1 C 71 % 1015.3 hPa 0.2 l/m 5.9 km/h (2 Bft) O-SO 0.32 h 242 W/m 13.5 C 19.1 C 10.0 km/h (2 Bft)
08.06.2008 18:00 17.2 C 86 % 1015.6 hPa 0.0 l/m 1.9 km/h (1 Bft) N 0.00 h 90 W/m 14.8 C 17.2 C 4.2 km/h (1 Bft)
08.06.2008 19:00 17.5 C 77 % 1016.2 hPa 0.2 l/m 3.1 km/h (1 Bft) N-NO 0.00 h 92 W/m 13.3 C 17.5 C 6.7 km/h (2 Bft)
08.06.2008 20:00 17.3 C 75 % 1016.4 hPa 0.0 l/m 1.3 km/h (1 Bft) O 0.00 h 27 W/m 12.8 C 17.3 C 3.3 km/h (1 Bft)
08.06.2008 21:00 16.2 C 82 % 1016.5 hPa 0.0 l/m 1.8 km/h (1 Bft) SO 0.00 h 9 W/m 13.1 C 16.2 C 3.4 km/h (1 Bft)
08.06.2008 22:00 15.3 C 83 % 1017.3 hPa 0.0 l/m 1.2 km/h (1 Bft) N-NO 0.00 h 0 W/m 12.5 C 15.3 C 3.1 km/h (1 Bft)
08.06.2008 23:00 14.0 C 89 % 1017.7 hPa 0.0 l/m 1.3 km/h (1 Bft) O-SO 0.00 h 0 W/m 12.1 C 14.0 C 2.9 km/h (1 Bft)
Min-Datum _ 07.06.08 03.06.08 02.06.08 - 02.06.08 - - - 03.06.08 07.06.08 02.06.08
_ Min-Zeit 04:00 15:27 04:00 - 00:00 - - - 15:27 03:23 00:06
Minimum _ 11.3 C 37 % 1008.8 hPa - 0.0 km/h (0 Bft) - - - 8.9 C 11.4 C 0.0 km/h (0 Bft)
Max-Datum _ 03.06.08 04.06.08 08.06.08 03.06.08 02.06.08 - 02.06.08 03.06.08 02.06.08 03.06.08 02.06.08
_ Max-Zeit 17:05 02:27 23:30 23:38 18:09 - 06:57 13:49 10:43 17:05 17:44
Maximum _ 25.5 C 100 % 1017.8 hPa 22.8 l/m 33.0 km/h
W (5 Bft)
- 0.02 h 1208 W/m 17.5 C 25.5 C 55.6 km/h
W (7 Bft)
Durchschnitt _ 15.4 C 86 % 1013.4 hPa #45.0 l/m 3.8 km/h (1 Bft) W #24:28 h 219 W/m 12.8 C 15.4 C 6.9 km/h (2 Bft)
© Kaiko 2008